createdAt,value
2019-02-25T00:00:14.490Z,7.53
2019-02-25T00:02:43.184Z,8.40
2019-02-25T00:05:11.850Z,8.90
2019-02-25T00:07:40.553Z,10.20
2019-02-25T00:10:09.966Z,10.53
2019-02-25T00:12:38.640Z,9.37
2019-02-25T00:15:09.117Z,10.87
2019-02-25T00:17:40.121Z,10.10
2019-02-25T00:20:13.162Z,9.97
2019-02-25T00:22:41.851Z,10.53
2019-02-25T00:25:12.825Z,9.33
2019-02-25T00:27:41.431Z,9.80
2019-02-25T00:30:12.253Z,8.93
2019-02-25T00:32:40.877Z,12.80
2019-02-25T00:35:09.673Z,9.47
2019-02-25T00:37:38.301Z,8.87
2019-02-25T00:40:12.466Z,9.57
2019-02-25T00:42:41.075Z,11.23
2019-02-25T00:45:16.461Z,9.77
2019-02-25T00:47:44.989Z,9.90
2019-02-25T00:50:18.491Z,8.60
2019-02-25T00:52:47.103Z,10.40
2019-02-25T00:55:16.036Z,10.20
2019-02-25T00:57:44.654Z,9.63
2019-02-25T01:00:21.666Z,10.97
2019-02-25T01:02:50.468Z,9.37
2019-02-25T01:05:19.245Z,10.43
2019-02-25T01:07:47.929Z,12.07
2019-02-25T01:10:17.793Z,8.83
2019-02-25T01:12:46.585Z,9.43
2019-02-25T01:15:16.380Z,10.07
2019-02-25T01:17:45.169Z,10.10
2019-02-25T01:20:17.484Z,9.67
2019-02-25T01:22:46.192Z,9.37
2019-02-25T01:25:17.968Z,9.87
2019-02-25T01:27:46.729Z,11.20
2019-02-25T01:30:19.295Z,12.87
2019-02-25T01:32:48.016Z,10.00
2019-02-25T01:35:16.764Z,12.40
2019-02-25T01:37:45.341Z,8.73
2019-02-25T01:40:14.957Z,11.33
2019-02-25T01:42:43.577Z,8.80
2019-02-25T01:45:21.777Z,10.90
2019-02-25T01:47:50.344Z,10.73
2019-02-25T01:50:19.038Z,8.37
2019-02-25T01:52:47.645Z,12.77
2019-02-25T01:55:16.359Z,13.73
2019-02-25T01:57:45.041Z,9.70
2019-02-25T02:00:18.432Z,10.43
2019-02-25T02:02:47.170Z,10.73
2019-02-25T02:05:15.912Z,10.97
2019-02-25T02:07:44.609Z,10.33
2019-02-25T02:10:17.187Z,10.00
2019-02-25T02:12:45.964Z,9.93
2019-02-25T02:15:20.174Z,9.40
2019-02-25T02:17:48.739Z,12.33
2019-02-25T02:20:18.028Z,10.60
2019-02-25T02:22:46.658Z,11.57
2019-02-25T02:25:15.447Z,12.37
2019-02-25T02:27:44.193Z,10.13
2019-02-25T02:30:20.931Z,9.17
2019-02-25T02:32:49.806Z,10.13
2019-02-25T02:35:18.486Z,7.83
2019-02-25T02:37:47.059Z,14.23
2019-02-25T02:40:15.957Z,7.50
2019-02-25T02:42:59.044Z,12.13
2019-02-25T02:45:33.510Z,14.33
2019-02-25T02:48:05.439Z,8.67
2019-02-25T02:50:33.973Z,9.83
2019-02-25T02:53:02.554Z,9.37
2019-02-25T02:55:31.308Z,7.67
2019-02-25T02:57:59.988Z,10.20
2019-02-25T03:00:28.592Z,9.83
2019-02-25T03:02:57.223Z,9.80
2019-02-25T03:05:25.787Z,9.93
2019-02-25T03:07:54.482Z,10.93
2019-02-25T03:10:23.082Z,9.80
2019-02-25T03:12:51.631Z,10.00
2019-02-25T03:15:21.815Z,11.37
2019-02-25T03:17:50.448Z,10.37
2019-02-25T03:20:22.145Z,9.33
2019-02-25T03:22:50.751Z,8.73
2019-02-25T03:25:19.554Z,9.57
2019-02-25T03:27:48.108Z,9.50
2019-02-25T03:30:19.046Z,10.20
2019-02-25T03:32:47.669Z,11.47
2019-02-25T03:35:16.524Z,8.73
2019-02-25T03:37:45.174Z,8.97
2019-02-25T03:40:21.907Z,11.30
2019-02-25T03:42:50.582Z,10.07
2019-02-25T03:45:20.389Z,7.53
2019-02-25T03:47:49.148Z,10.90
2019-02-25T03:50:17.882Z,13.83
2019-02-25T03:52:46.513Z,9.10
2019-02-25T03:55:17.337Z,11.07
2019-02-25T03:57:45.943Z,12.97
2019-02-25T04:00:23.368Z,9.20
2019-02-25T04:02:52.053Z,8.80
2019-02-25T04:05:20.814Z,15.90
2019-02-25T04:07:49.512Z,8.73
2019-02-25T04:10:18.235Z,10.70
2019-02-25T04:12:46.841Z,12.13
2019-02-25T04:15:18.971Z,9.33
2019-02-25T04:17:47.613Z,13.63
2019-02-25T04:20:17.158Z,9.93
2019-02-25T04:22:45.720Z,11.77
2019-02-25T04:25:14.389Z,8.50
2019-02-25T04:27:43.030Z,13.87
2019-02-25T04:30:14.638Z,10.33
2019-02-25T04:32:43.369Z,11.03
2019-02-25T04:35:13.018Z,12.70
2019-02-25T04:37:41.653Z,11.43
2019-02-25T04:40:12.895Z,10.67
2019-02-25T04:42:42.582Z,10.83
2019-02-25T04:45:18.790Z,13.40
2019-02-25T04:47:47.503Z,12.57
2019-02-25T04:50:16.339Z,10.27
2019-02-25T04:52:44.875Z,11.97
2019-02-25T04:55:14.793Z,10.57
2019-02-25T04:57:43.416Z,9.93
2019-02-25T05:00:16.979Z,9.33
2019-02-25T05:02:45.661Z,11.73
2019-02-25T05:05:14.365Z,10.60
2019-02-25T05:07:42.973Z,12.57
2019-02-25T05:10:15.906Z,12.47
2019-02-25T05:13:04.194Z,11.30
2019-02-25T05:15:34.314Z,12.00
2019-02-25T05:18:02.825Z,12.13
2019-02-25T05:20:31.514Z,9.50
2019-02-25T05:23:00.066Z,12.50
2019-02-25T05:25:28.688Z,10.47
2019-02-25T05:27:57.322Z,10.70
2019-02-25T05:30:26.062Z,12.20
2019-02-25T05:32:54.581Z,12.40
2019-02-25T05:35:23.229Z,11.23
2019-02-25T05:37:51.826Z,11.87
2019-02-25T05:40:21.126Z,12.13
2019-02-25T05:42:49.759Z,12.53
2019-02-25T05:45:18.499Z,12.20
2019-02-25T05:47:47.178Z,15.53
2019-02-25T05:50:17.279Z,15.13
2019-02-25T05:52:45.976Z,19.37
2019-02-25T05:55:15.852Z,14.03
2019-02-25T05:57:44.577Z,13.47
2019-02-25T06:00:25.439Z,15.13
2019-02-25T06:02:54.245Z,11.53
2019-02-25T06:05:24.973Z,12.70
2019-02-25T06:07:53.809Z,13.57
2019-02-25T06:10:22.620Z,14.43
2019-02-25T06:12:51.359Z,14.97
2019-02-25T06:15:20.477Z,11.47
2019-02-25T06:17:49.189Z,11.70
2019-02-25T06:20:18.505Z,11.57
2019-02-25T06:22:47.105Z,15.67
2019-02-25T06:25:16.517Z,12.10
2019-02-25T06:27:45.340Z,12.10
2019-02-25T06:30:18.777Z,13.17
2019-02-25T06:32:47.386Z,12.47
2019-02-25T06:35:16.125Z,13.53
2019-02-25T06:37:45.042Z,11.30
2019-02-25T06:40:19.629Z,15.37
2019-02-25T06:42:53.509Z,11.90
2019-02-25T06:45:28.144Z,11.97
2019-02-25T06:48:02.666Z,13.33
2019-02-25T06:50:31.534Z,15.17
2019-02-25T06:53:00.189Z,13.07
2019-02-25T06:55:28.827Z,12.70
2019-02-25T06:57:57.478Z,15.90
2019-02-25T07:00:26.098Z,12.77
2019-02-25T07:02:54.994Z,15.83
2019-02-25T07:05:31.246Z,12.60
2019-02-25T07:08:04.219Z,12.73
2019-02-25T07:10:49.821Z,13.37
2019-02-25T07:13:29.068Z,13.43
2019-02-25T07:16:17.751Z,10.97
2019-02-25T07:18:52.288Z,16.37
2019-02-25T07:21:22.622Z,16.10
2019-02-25T07:23:52.940Z,22.30
2019-02-25T07:26:32.269Z,15.73
2019-02-25T07:29:03.592Z,18.27
2019-02-25T07:31:51.620Z,16.10
2019-02-25T07:34:24.463Z,15.87
2019-02-25T07:36:54.750Z,17.03
2019-02-25T07:39:37.080Z,19.93
2019-02-25T07:42:22.506Z,11.83
2019-02-25T07:44:52.697Z,16.67
2019-02-25T07:47:23.057Z,14.23
2019-02-25T07:50:02.227Z,13.13
2019-02-25T07:52:38.122Z,12.23
2019-02-25T07:55:16.423Z,12.03
2019-02-25T07:57:52.591Z,17.47
2019-02-25T08:00:39.128Z,20.37
2019-02-25T08:03:13.576Z,18.23
2019-02-25T08:05:49.579Z,16.83
2019-02-25T08:08:31.786Z,19.20
2019-02-25T08:11:09.007Z,17.87
2019-02-25T08:13:42.003Z,9.93
2019-02-25T08:16:15.008Z,13.07
2019-02-25T08:18:48.177Z,16.23
2019-02-25T08:21:33.478Z,16.30
2019-02-25T08:24:15.475Z,12.40
2019-02-25T08:26:54.289Z,18.67
2019-02-25T08:29:40.582Z,19.03
2019-02-25T08:32:16.465Z,17.37
2019-02-25T08:35:03.033Z,14.90
2019-02-25T08:37:41.654Z,23.60
2019-02-25T08:40:31.149Z,18.63
2019-02-25T08:43:00.292Z,13.63
2019-02-25T08:45:33.241Z,18.33
2019-02-25T08:48:03.630Z,16.93
2019-02-25T08:50:32.194Z,18.77
2019-02-25T08:53:00.940Z,13.20
2019-02-25T08:55:29.743Z,12.80
2019-02-25T08:57:58.357Z,13.30
2019-02-25T09:00:27.075Z,20.07
2019-02-25T09:02:55.881Z,14.33
2019-02-25T09:05:24.507Z,15.50
2019-02-25T09:07:53.148Z,13.80
2019-02-25T09:10:21.889Z,16.97
2019-02-25T09:12:50.800Z,11.90
2019-02-25T09:15:19.409Z,12.17
2019-02-25T09:17:46.825Z,11.77
2019-02-25T09:20:16.463Z,11.37
2019-02-25T09:22:45.105Z,35.07
2019-02-25T09:25:15.142Z,57.80
2019-02-25T09:27:43.702Z,36.47
2019-02-25T09:30:18.699Z,52.47
2019-02-25T09:32:47.326Z,26.60
2019-02-25T09:35:15.983Z,21.73
2019-02-25T09:37:44.698Z,22.60
2019-02-25T09:40:15.678Z,15.27
2019-02-25T09:42:44.380Z,13.47
2019-02-25T09:45:15.234Z,14.00
2019-02-25T09:47:43.796Z,19.07
2019-02-25T09:50:14.291Z,15.40
2019-02-25T09:52:42.979Z,16.07
2019-02-25T09:55:15.944Z,17.80
2019-02-25T09:57:44.624Z,17.53
2019-02-25T10:00:19.505Z,13.33
2019-02-25T10:02:48.144Z,13.47
2019-02-25T10:05:16.834Z,9.33
2019-02-25T10:07:45.566Z,10.43
2019-02-25T10:10:15.305Z,10.40
2019-02-25T10:12:44.129Z,11.07
2019-02-25T10:15:20.526Z,11.00
2019-02-25T10:17:49.190Z,11.93
2019-02-25T10:20:19.438Z,16.13
2019-02-25T10:22:48.016Z,7.60
2019-02-25T10:25:16.720Z,11.83
2019-02-25T10:27:45.350Z,13.10
2019-02-25T10:30:16.106Z,15.30
2019-02-25T10:32:44.674Z,10.13
2019-02-25T10:35:15.614Z,10.93
2019-02-25T10:37:44.125Z,12.33
2019-02-25T10:40:15.494Z,11.70
2019-02-25T10:42:44.419Z,7.90
2019-02-25T10:45:15.889Z,8.13
2019-02-25T10:47:46.459Z,8.17
2019-02-25T10:50:15.439Z,11.90
2019-02-25T10:52:44.901Z,12.23
2019-02-25T10:55:23.272Z,8.47
2019-02-25T10:57:52.844Z,9.53
2019-02-25T11:00:22.492Z,13.33
2019-02-25T11:03:12.381Z,8.83
2019-02-25T11:05:41.046Z,8.33
2019-02-25T11:08:12.117Z,12.93
2019-02-25T11:10:44.141Z,10.60
2019-02-25T11:13:13.688Z,11.20
2019-02-25T11:15:44.011Z,12.90
2019-02-25T11:18:12.800Z,18.20
2019-02-25T11:20:41.509Z,8.60
2019-02-25T11:23:12.154Z,11.40
2019-02-25T11:25:40.514Z,11.83
2019-02-25T11:28:11.205Z,9.50
2019-02-25T11:30:39.554Z,9.27
2019-02-25T11:33:08.175Z,10.63
2019-02-25T11:35:38.818Z,11.50
2019-02-25T11:38:07.163Z,14.00
2019-02-25T11:40:37.834Z,14.27
2019-02-25T11:43:08.220Z,10.00
2019-02-25T11:45:36.565Z,11.13
2019-02-25T11:48:05.275Z,11.23
2019-02-25T11:50:34.080Z,10.80
2019-02-25T11:53:02.720Z,9.53
2019-02-25T11:55:31.263Z,10.43
2019-02-25T11:57:59.910Z,10.13
2019-02-25T12:00:29.944Z,8.70
2019-02-25T12:02:58.707Z,11.63
2019-02-25T12:05:27.510Z,8.13
2019-02-25T12:07:56.247Z,10.03
2019-02-25T12:10:24.949Z,7.67
2019-02-25T12:12:53.636Z,11.70
2019-02-25T12:15:23.102Z,11.30
2019-02-25T12:17:51.700Z,9.57
2019-02-25T12:20:20.618Z,12.93
2019-02-25T12:22:49.287Z,9.60
2019-02-25T12:25:22.219Z,11.63
2019-02-25T12:27:50.763Z,13.20
2019-02-25T12:30:27.496Z,9.50
2019-02-25T12:32:56.193Z,10.77
2019-02-25T12:35:24.953Z,14.20
2019-02-25T12:37:53.530Z,11.07
2019-02-25T12:40:22.245Z,12.57
2019-02-25T12:42:50.945Z,10.93
2019-02-25T12:45:19.713Z,13.23
2019-02-25T12:47:48.369Z,12.37
2019-02-25T12:50:19.107Z,16.60
2019-02-25T12:52:47.882Z,9.43
2019-02-25T12:55:17.474Z,13.47
2019-02-25T12:57:46.015Z,14.97
2019-02-25T13:00:19.890Z,8.57
2019-02-25T13:02:48.562Z,10.87
2019-02-25T13:05:19.353Z,11.13
2019-02-25T13:07:48.163Z,8.63
2019-02-25T13:10:17.787Z,12.57
2019-02-25T13:12:46.447Z,12.70
2019-02-25T13:15:22.185Z,10.80
2019-02-25T13:17:51.017Z,11.80
2019-02-25T13:20:21.209Z,12.97
2019-02-25T13:22:49.903Z,13.63
2019-02-25T13:25:20.899Z,10.50
2019-02-25T13:27:49.510Z,12.03
2019-02-25T13:30:18.395Z,6.77
2019-02-25T13:32:47.097Z,8.27
2019-02-25T13:35:16.097Z,9.57
2019-02-25T13:37:44.801Z,10.00
2019-02-25T13:40:16.206Z,10.90
2019-02-25T13:42:44.848Z,7.87
2019-02-25T13:45:18.742Z,8.90
2019-02-25T13:47:47.302Z,13.10
2019-02-25T13:50:17.009Z,12.50
2019-02-25T13:52:48.378Z,11.67
2019-02-25T13:55:20.593Z,8.90
2019-02-25T13:57:49.226Z,9.30
2019-02-25T14:00:24.951Z,7.80
2019-02-25T14:02:53.593Z,8.13
2019-02-25T14:05:22.681Z,8.53
2019-02-25T14:07:51.344Z,7.00
2019-02-25T14:10:20.658Z,6.07
2019-02-25T14:12:49.397Z,11.73
2019-02-25T14:15:25.316Z,9.07
2019-02-25T14:17:53.915Z,9.87
2019-02-25T14:20:23.719Z,6.57
2019-02-25T14:22:52.541Z,8.57
2019-02-25T14:25:31.341Z,8.70
2019-02-25T14:28:02.825Z,7.60
2019-02-25T14:30:33.397Z,7.37
2019-02-25T14:33:01.958Z,7.23
2019-02-25T14:35:32.346Z,9.30
2019-02-25T14:38:07.613Z,9.53
2019-02-25T14:40:39.414Z,7.87
2019-02-25T14:43:05.970Z,7.50
2019-02-25T14:45:34.860Z,8.27
2019-02-25T14:48:06.171Z,7.80
2019-02-25T14:50:35.336Z,6.40
2019-02-25T14:53:08.080Z,6.80
2019-02-25T14:55:34.586Z,6.83
2019-02-25T14:58:06.772Z,8.03
2019-02-25T15:00:37.500Z,8.07
2019-02-25T15:03:05.088Z,7.87
2019-02-25T15:05:35.306Z,8.57
2019-02-25T15:08:04.441Z,10.50
2019-02-25T15:10:33.960Z,9.50
2019-02-25T15:13:06.690Z,7.73
2019-02-25T15:15:41.133Z,12.17
2019-02-25T15:18:11.176Z,8.37
2019-02-25T15:20:39.880Z,9.73
2019-02-25T15:23:12.444Z,7.57
2019-02-25T15:25:42.065Z,7.90
2019-02-25T15:28:11.374Z,9.87
2019-02-25T15:30:39.658Z,9.50
2019-02-25T15:33:08.771Z,8.20
2019-02-25T15:35:39.236Z,11.03
2019-02-25T15:38:07.642Z,11.47
2019-02-25T15:40:36.358Z,12.63
2019-02-25T15:43:15.164Z,9.70
2019-02-25T15:45:44.394Z,10.57
2019-02-25T15:48:15.251Z,9.50
2019-02-25T15:50:46.282Z,6.17
2019-02-25T15:53:16.185Z,11.00
2019-02-25T15:55:45.100Z,8.70
2019-02-25T15:58:13.799Z,13.93
2019-02-25T16:00:43.900Z,8.83
2019-02-25T16:03:13.777Z,8.63
2019-02-25T16:05:44.386Z,8.30
2019-02-25T16:08:16.198Z,10.47
2019-02-25T16:10:43.937Z,11.90
2019-02-25T16:13:14.197Z,9.83
2019-02-25T16:15:43.179Z,10.97
2019-02-25T16:18:13.796Z,9.07
2019-02-25T16:20:45.740Z,7.30
2019-02-25T16:23:12.988Z,9.07
2019-02-25T16:25:41.964Z,10.47
2019-02-25T16:28:12.568Z,13.33
2019-02-25T16:30:42.330Z,12.00
2019-02-25T16:33:13.652Z,13.20
2019-02-25T16:35:43.551Z,13.43
2019-02-25T16:38:14.399Z,11.30
2019-02-25T16:40:43.330Z,11.17
2019-02-25T16:43:16.415Z,9.50
2019-02-25T16:45:47.002Z,21.43
2019-02-25T16:48:17.239Z,11.30
2019-02-25T16:50:46.437Z,9.67
2019-02-25T16:53:23.422Z,10.90
2019-02-25T16:55:52.142Z,11.20
2019-02-25T16:58:20.844Z,10.37
2019-02-25T17:00:49.590Z,16.17
2019-02-25T17:03:18.496Z,14.50
2019-02-25T17:05:47.791Z,12.83
2019-02-25T17:08:19.107Z,10.60
2019-02-25T17:10:49.569Z,11.73
2019-02-25T17:13:17.946Z,13.87
2019-02-25T17:15:46.882Z,12.97
2019-02-25T17:18:16.016Z,10.90
2019-02-25T17:20:45.210Z,9.17
2019-02-25T17:23:40.525Z,10.43
2019-02-25T17:26:10.584Z,14.97
2019-02-25T17:28:39.649Z,15.40
2019-02-25T17:31:09.042Z,12.73
2019-02-25T17:33:38.563Z,12.00
2019-02-25T17:36:08.448Z,14.13
2019-02-25T17:38:37.869Z,11.23
2019-02-25T17:41:08.380Z,11.27
2019-02-25T17:43:39.139Z,10.63
2019-02-25T17:46:09.229Z,13.07
2019-02-25T17:48:38.008Z,13.10
2019-02-25T17:51:06.801Z,14.27
2019-02-25T17:53:35.497Z,9.97
2019-02-25T17:56:04.372Z,9.50
2019-02-25T17:58:33.196Z,14.67
2019-02-25T18:01:03.361Z,24.30
2019-02-25T18:03:32.354Z,23.47
2019-02-25T18:06:02.858Z,39.10
2019-02-25T18:08:32.215Z,11.10
2019-02-25T18:11:01.888Z,14.30
2019-02-25T18:13:32.454Z,15.23
2019-02-25T18:16:01.213Z,13.33
2019-02-25T18:18:30.004Z,14.23
2019-02-25T18:20:58.833Z,15.80
2019-02-25T18:23:27.664Z,14.47
2019-02-25T18:25:58.566Z,9.83
2019-02-25T18:28:26.801Z,12.27
2019-02-25T18:30:55.854Z,11.97
2019-02-25T18:33:26.782Z,14.93
2019-02-25T18:35:55.250Z,12.43
2019-02-25T18:38:25.158Z,13.67
2019-02-25T18:40:54.449Z,36.47
2019-02-25T18:43:24.229Z,18.97
2019-02-25T18:45:56.263Z,18.53
2019-02-25T18:48:26.964Z,15.00
2019-02-25T18:50:58.438Z,13.20
2019-02-25T18:53:27.069Z,16.30
2019-02-25T18:55:56.775Z,16.83
2019-02-25T18:58:28.660Z,17.80
2019-02-25T19:00:57.667Z,13.23
2019-02-25T19:03:26.933Z,16.77
2019-02-25T19:05:57.460Z,13.03
2019-02-25T19:08:29.049Z,13.97
2019-02-25T19:10:57.368Z,17.40
2019-02-25T19:13:27.683Z,12.47
2019-02-25T19:15:57.580Z,14.07
2019-02-25T19:18:29.436Z,14.73
2019-02-25T19:20:59.324Z,13.87
2019-02-25T19:23:28.467Z,19.03
2019-02-25T19:25:57.222Z,12.80
2019-02-25T19:28:26.484Z,12.63
2019-02-25T19:30:56.352Z,12.13
2019-02-25T19:33:25.089Z,13.07
2019-02-25T19:35:54.372Z,20.60
2019-02-25T19:38:24.105Z,9.27
2019-02-25T19:40:55.144Z,10.43
2019-02-25T19:43:24.226Z,16.77
2019-02-25T19:45:53.176Z,19.37
2019-02-25T19:48:28.697Z,11.97
2019-02-25T19:50:58.494Z,14.07
2019-02-25T19:53:26.996Z,10.30
2019-02-25T19:55:55.890Z,17.93
2019-02-25T19:58:26.797Z,15.80
2019-02-25T20:00:59.031Z,14.77
2019-02-25T20:03:25.380Z,11.63
2019-02-25T20:05:56.277Z,12.30
2019-02-25T20:08:24.976Z,12.53
2019-02-25T20:10:54.959Z,15.77
2019-02-25T20:13:23.785Z,14.93
2019-02-25T20:15:53.251Z,12.17
2019-02-25T20:18:27.768Z,15.23
2019-02-25T20:20:57.744Z,17.67
2019-02-25T20:23:28.357Z,20.03
2019-02-25T20:25:57.831Z,13.13
2019-02-25T20:28:26.822Z,14.27
2019-02-25T20:30:55.889Z,16.40
2019-02-25T20:33:30.398Z,17.23
2019-02-25T20:35:56.033Z,13.37
2019-02-25T20:38:27.144Z,12.70
2019-02-25T20:40:56.245Z,19.27
2019-02-25T20:43:28.201Z,15.40
2019-02-25T20:45:58.548Z,16.53
2019-02-25T20:48:27.539Z,15.70
2019-02-25T20:50:59.599Z,18.33
2019-02-25T20:53:29.540Z,30.10
2019-02-25T20:55:58.911Z,32.40
2019-02-25T20:58:27.785Z,25.40
2019-02-25T21:00:56.394Z,16.37
2019-02-25T21:03:25.826Z,20.90
2019-02-25T21:05:55.549Z,18.87
2019-02-25T21:08:24.112Z,16.63
2019-02-25T21:10:52.816Z,19.67
2019-02-25T21:13:22.026Z,18.30
2019-02-25T21:15:51.931Z,33.87
2019-02-25T21:18:22.384Z,36.70
2019-02-25T21:20:51.486Z,47.40
2019-02-25T21:23:20.739Z,20.40
2019-02-25T21:25:53.438Z,18.93
2019-02-25T21:28:19.711Z,23.00
2019-02-25T21:30:50.204Z,21.07
2019-02-25T21:33:19.931Z,19.17
2019-02-25T21:35:49.146Z,14.10
2019-02-25T21:38:19.452Z,20.67
2019-02-25T21:40:48.780Z,13.60
2019-02-25T21:43:19.216Z,18.13
2019-02-25T21:45:50.434Z,14.73
2019-02-25T21:48:21.129Z,14.90
2019-02-25T21:50:49.326Z,13.90
2019-02-25T21:53:18.395Z,14.63
2019-02-25T21:55:47.158Z,14.20
2019-02-25T21:58:18.017Z,15.43
2019-02-25T22:00:46.149Z,15.73
2019-02-25T22:03:15.837Z,15.20
2019-02-25T22:05:44.984Z,18.53
2019-02-25T22:08:13.762Z,12.47
2019-02-25T22:10:44.082Z,15.23
2019-02-25T22:13:14.173Z,15.03
2019-02-25T22:15:45.169Z,18.10
2019-02-25T22:18:14.102Z,12.77
2019-02-25T22:20:44.721Z,10.37
2019-02-25T22:23:13.349Z,15.60
2019-02-25T22:25:41.915Z,14.77
2019-02-25T22:28:10.590Z,14.70
2019-02-25T22:30:39.315Z,14.97
2019-02-25T22:33:19.474Z,14.27
2019-02-25T22:35:40.546Z,15.20
2019-02-25T22:38:08.445Z,12.97
2019-02-25T22:40:38.824Z,15.67
2019-02-25T22:43:07.321Z,15.40
2019-02-25T22:45:37.607Z,14.40
2019-02-25T22:48:06.222Z,12.70
2019-02-25T22:50:36.026Z,14.40
2019-02-25T22:53:08.342Z,20.10
2019-02-25T22:55:39.298Z,9.87
2019-02-25T22:58:06.627Z,13.03
2019-02-25T23:00:42.475Z,13.60
2019-02-25T23:03:15.277Z,15.33
2019-02-25T23:05:43.659Z,12.23
2019-02-25T23:08:13.110Z,13.17
2019-02-25T23:10:44.418Z,15.13
2019-02-25T23:13:13.565Z,13.57
2019-02-25T23:15:44.162Z,16.07
2019-02-25T23:18:14.361Z,14.87
2019-02-25T23:20:42.746Z,15.30
2019-02-25T23:23:11.431Z,14.50
2019-02-25T23:25:40.101Z,16.63
2019-02-25T23:28:08.646Z,16.23
2019-02-25T23:30:39.233Z,12.40
2019-02-25T23:33:09.769Z,15.03
2019-02-25T23:35:40.743Z,14.10
2019-02-25T23:38:08.349Z,17.37
2019-02-25T23:40:38.265Z,14.60
2019-02-25T23:43:07.851Z,14.97
2019-02-25T23:45:37.910Z,13.87
2019-02-25T23:48:08.893Z,14.43
2019-02-25T23:50:37.995Z,18.90
2019-02-25T23:53:06.569Z,15.07
2019-02-25T23:55:35.127Z,14.80
2019-02-25T23:58:07.890Z,14.40
